sensor_id;sensor_type;location;lat;lon;timestamp;P1;durP1;ratioP1;P2;durP2;ratioP2
74995;SDS011;63545;51.690;5.202;2023-04-21T00:01:11;36.10;;;21.70;;
74995;SDS011;63545;51.690;5.202;2023-04-21T00:03:37;34.73;;;22.23;;
74995;SDS011;63545;51.690;5.202;2023-04-21T00:06:06;37.25;;;22.65;;
74995;SDS011;63545;51.690;5.202;2023-04-21T00:08:31;36.13;;;22.05;;
74995;SDS011;63545;51.690;5.202;2023-04-21T00:10:58;37.58;;;21.85;;
74995;SDS011;63545;51.690;5.202;2023-04-21T00:13:23;36.20;;;22.13;;
74995;SDS011;63545;51.690;5.202;2023-04-21T00:15:49;38.93;;;22.23;;
74995;SDS011;63545;51.690;5.202;2023-04-21T00:18:15;38.28;;;21.23;;
74995;SDS011;63545;51.690;5.202;2023-04-21T00:20:40;38.50;;;21.87;;
74995;SDS011;63545;51.690;5.202;2023-04-21T00:23:06;35.67;;;21.70;;
74995;SDS011;63545;51.690;5.202;2023-04-21T00:25:34;36.83;;;21.38;;
74995;SDS011;63545;51.690;5.202;2023-04-21T00:28:00;35.50;;;21.13;;
74995;SDS011;63545;51.690;5.202;2023-04-21T00:30:25;38.30;;;20.67;;
74995;SDS011;63545;51.690;5.202;2023-04-21T00:32:50;36.37;;;20.30;;
74995;SDS011;63545;51.690;5.202;2023-04-21T00:35:16;36.13;;;20.80;;
74995;SDS011;63545;51.690;5.202;2023-04-21T00:37:41;35.97;;;20.83;;
74995;SDS011;63545;51.690;5.202;2023-04-21T00:40:07;36.20;;;20.63;;
74995;SDS011;63545;51.690;5.202;2023-04-21T00:42:33;37.20;;;20.33;;
74995;SDS011;63545;51.690;5.202;2023-04-21T00:44:58;39.00;;;20.70;;
74995;SDS011;63545;51.690;5.202;2023-04-21T00:47:23;36.33;;;20.60;;
74995;SDS011;63545;51.690;5.202;2023-04-21T00:49:49;35.73;;;20.73;;
74995;SDS011;63545;51.690;5.202;2023-04-21T00:52:15;39.20;;;20.60;;
74995;SDS011;63545;51.690;5.202;2023-04-21T00:54:42;42.23;;;20.73;;
74995;SDS011;63545;51.690;5.202;2023-04-21T00:57:07;41.00;;;21.95;;
74995;SDS011;63545;51.690;5.202;2023-04-21T00:59:33;35.63;;;19.65;;
74995;SDS011;63545;51.690;5.202;2023-04-21T01:01:58;38.80;;;20.03;;
74995;SDS011;63545;51.690;5.202;2023-04-21T01:04:25;39.60;;;19.70;;
74995;SDS011;63545;51.690;5.202;2023-04-21T01:06:50;35.80;;;19.08;;
74995;SDS011;63545;51.690;5.202;2023-04-21T01:09:17;38.58;;;20.30;;
74995;SDS011;63545;51.690;5.202;2023-04-21T01:11:58;40.07;;;21.60;;
74995;SDS011;63545;51.690;5.202;2023-04-21T01:14:26;36.95;;;20.70;;
74995;SDS011;63545;51.690;5.202;2023-04-21T01:16:51;36.33;;;19.47;;
74995;SDS011;63545;51.690;5.202;2023-04-21T01:19:16;41.57;;;21.83;;
74995;SDS011;63545;51.690;5.202;2023-04-21T01:21:42;40.00;;;21.17;;
74995;SDS011;63545;51.690;5.202;2023-04-21T01:24:08;40.03;;;21.97;;
74995;SDS011;63545;51.690;5.202;2023-04-21T01:26:33;41.47;;;20.60;;
74995;SDS011;63545;51.690;5.202;2023-04-21T01:28:58;40.33;;;20.87;;
74995;SDS011;63545;51.690;5.202;2023-04-21T01:31:24;40.47;;;21.87;;
74995;SDS011;63545;51.690;5.202;2023-04-21T01:33:51;37.03;;;20.15;;
74995;SDS011;63545;51.690;5.202;2023-04-21T01:36:16;40.50;;;21.47;;
74995;SDS011;63545;51.690;5.202;2023-04-21T01:38:41;39.17;;;20.93;;
74995;SDS011;63545;51.690;5.202;2023-04-21T01:41:08;43.47;;;21.50;;
74995;SDS011;63545;51.690;5.202;2023-04-21T01:43:34;44.58;;;22.00;;
74995;SDS011;63545;51.690;5.202;2023-04-21T01:46:01;39.00;;;20.02;;
74995;SDS011;63545;51.690;5.202;2023-04-21T01:48:27;40.28;;;21.73;;
74995;SDS011;63545;51.690;5.202;2023-04-21T01:50:52;43.97;;;21.53;;
74995;SDS011;63545;51.690;5.202;2023-04-21T01:53:18;38.83;;;20.07;;
74995;SDS011;63545;51.690;5.202;2023-04-21T01:55:43;41.03;;;20.87;;
74995;SDS011;63545;51.690;5.202;2023-04-21T01:58:11;37.30;;;20.60;;
74995;SDS011;63545;51.690;5.202;2023-04-21T02:00:36;41.60;;;21.10;;
74995;SDS011;63545;51.690;5.202;2023-04-21T02:03:01;37.90;;;21.13;;
74995;SDS011;63545;51.690;5.202;2023-04-21T02:05:27;46.40;;;22.47;;
74995;SDS011;63545;51.690;5.202;2023-04-21T02:07:52;41.53;;;20.30;;
74995;SDS011;63545;51.690;5.202;2023-04-21T02:10:17;41.37;;;21.07;;
74995;SDS011;63545;51.690;5.202;2023-04-21T02:12:43;40.50;;;20.60;;
74995;SDS011;63545;51.690;5.202;2023-04-21T02:15:08;36.13;;;19.83;;
74995;SDS011;63545;51.690;5.202;2023-04-21T02:17:34;37.35;;;20.17;;
74995;SDS011;63545;51.690;5.202;2023-04-21T02:20:00;38.00;;;20.03;;
74995;SDS011;63545;51.690;5.202;2023-04-21T02:22:25;39.80;;;20.33;;
74995;SDS011;63545;51.690;5.202;2023-04-21T02:24:51;38.55;;;20.10;;
74995;SDS011;63545;51.690;5.202;2023-04-21T02:27:16;42.10;;;20.23;;
74995;SDS011;63545;51.690;5.202;2023-04-21T02:29:42;38.60;;;20.60;;
74995;SDS011;63545;51.690;5.202;2023-04-21T02:32:07;38.60;;;19.93;;
74995;SDS011;63545;51.690;5.202;2023-04-21T02:34:33;37.50;;;19.85;;
74995;SDS011;63545;51.690;5.202;2023-04-21T02:37:00;38.92;;;20.55;;
74995;SDS011;63545;51.690;5.202;2023-04-21T02:39:26;41.77;;;20.23;;
74995;SDS011;63545;51.690;5.202;2023-04-21T02:41:51;40.63;;;20.63;;
74995;SDS011;63545;51.690;5.202;2023-04-21T02:44:17;38.23;;;19.83;;
74995;SDS011;63545;51.690;5.202;2023-04-21T02:46:42;40.97;;;20.83;;
74995;SDS011;63545;51.690;5.202;2023-04-21T02:49:08;44.73;;;21.93;;
74995;SDS011;63545;51.690;5.202;2023-04-21T02:51:34;42.80;;;20.90;;
74995;SDS011;63545;51.690;5.202;2023-04-21T02:53:59;42.70;;;20.03;;
74995;SDS011;63545;51.690;5.202;2023-04-21T02:56:24;45.70;;;21.10;;
74995;SDS011;63545;51.690;5.202;2023-04-21T02:58:50;45.47;;;21.47;;
74995;SDS011;63545;51.690;5.202;2023-04-21T03:01:15;48.87;;;23.40;;
74995;SDS011;63545;51.690;5.202;2023-04-21T03:03:41;47.83;;;22.70;;
74995;SDS011;63545;51.690;5.202;2023-04-21T03:06:06;49.83;;;23.53;;
74995;SDS011;63545;51.690;5.202;2023-04-21T03:08:31;51.80;;;24.53;;
74995;SDS011;63545;51.690;5.202;2023-04-21T03:10:57;59.40;;;25.33;;
74995;SDS011;63545;51.690;5.202;2023-04-21T03:13:22;49.83;;;24.63;;
74995;SDS011;63545;51.690;5.202;2023-04-21T03:15:48;54.67;;;25.00;;
74995;SDS011;63545;51.690;5.202;2023-04-21T03:18:14;60.50;;;26.47;;
74995;SDS011;63545;51.690;5.202;2023-04-21T03:20:39;57.93;;;25.63;;
74995;SDS011;63545;51.690;5.202;2023-04-21T03:23:04;63.50;;;27.47;;
74995;SDS011;63545;51.690;5.202;2023-04-21T03:25:30;58.43;;;27.03;;
74995;SDS011;63545;51.690;5.202;2023-04-21T03:27:55;63.70;;;27.97;;
74995;SDS011;63545;51.690;5.202;2023-04-21T03:30:21;63.73;;;27.33;;
74995;SDS011;63545;51.690;5.202;2023-04-21T03:32:47;61.58;;;28.05;;
74995;SDS011;63545;51.690;5.202;2023-04-21T03:35:12;63.60;;;26.95;;
74995;SDS011;63545;51.690;5.202;2023-04-21T03:37:38;64.87;;;27.73;;
74995;SDS011;63545;51.690;5.202;2023-04-21T03:40:03;62.17;;;27.97;;
74995;SDS011;63545;51.690;5.202;2023-04-21T03:42:32;59.40;;;27.38;;
74995;SDS011;63545;51.690;5.202;2023-04-21T03:45:04;61.07;;;28.30;;
74995;SDS011;63545;51.690;5.202;2023-04-21T03:47:31;58.97;;;26.98;;
74995;SDS011;63545;51.690;5.202;2023-04-21T03:49:56;62.43;;;27.87;;
74995;SDS011;63545;51.690;5.202;2023-04-21T03:52:22;62.07;;;27.73;;
74995;SDS011;63545;51.690;5.202;2023-04-21T03:54:47;60.38;;;28.15;;
74995;SDS011;63545;51.690;5.202;2023-04-21T03:57:13;59.33;;;28.50;;
74995;SDS011;63545;51.690;5.202;2023-04-21T03:59:39;62.03;;;26.30;;
74995;SDS011;63545;51.690;5.202;2023-04-21T04:02:05;65.47;;;28.30;;
74995;SDS011;63545;51.690;5.202;2023-04-21T04:04:30;67.63;;;29.47;;
74995;SDS011;63545;51.690;5.202;2023-04-21T04:06:56;72.93;;;29.70;;
74995;SDS011;63545;51.690;5.202;2023-04-21T04:09:21;66.80;;;28.57;;
74995;SDS011;63545;51.690;5.202;2023-04-21T04:11:47;70.50;;;30.67;;
74995;SDS011;63545;51.690;5.202;2023-04-21T04:14:12;66.87;;;28.23;;
74995;SDS011;63545;51.690;5.202;2023-04-21T04:16:37;71.57;;;30.03;;
74995;SDS011;63545;51.690;5.202;2023-04-21T04:19:03;65.75;;;28.63;;
74995;SDS011;63545;51.690;5.202;2023-04-21T04:21:28;72.30;;;30.40;;
74995;SDS011;63545;51.690;5.202;2023-04-21T04:23:56;73.93;;;31.15;;
74995;SDS011;63545;51.690;5.202;2023-04-21T04:26:23;67.60;;;28.87;;
74995;SDS011;63545;51.690;5.202;2023-04-21T04:28:49;73.47;;;31.23;;
74995;SDS011;63545;51.690;5.202;2023-04-21T04:31:15;79.65;;;31.63;;
74995;SDS011;63545;51.690;5.202;2023-04-21T04:33:41;73.50;;;30.17;;
74995;SDS011;63545;51.690;5.202;2023-04-21T04:36:07;75.33;;;30.87;;
74995;SDS011;63545;51.690;5.202;2023-04-21T04:38:33;77.05;;;32.55;;
74995;SDS011;63545;51.690;5.202;2023-04-21T04:41:01;75.10;;;30.90;;
74995;SDS011;63545;51.690;5.202;2023-04-21T04:43:27;72.30;;;30.70;;
74995;SDS011;63545;51.690;5.202;2023-04-21T04:45:52;78.20;;;30.73;;
74995;SDS011;63545;51.690;5.202;2023-04-21T04:48:17;71.90;;;29.77;;
74995;SDS011;63545;51.690;5.202;2023-04-21T04:50:43;69.88;;;30.85;;
74995;SDS011;63545;51.690;5.202;2023-04-21T04:53:08;73.57;;;30.37;;
74995;SDS011;63545;51.690;5.202;2023-04-21T04:55:34;76.37;;;31.00;;
74995;SDS011;63545;51.690;5.202;2023-04-21T04:57:59;73.53;;;30.80;;
74995;SDS011;63545;51.690;5.202;2023-04-21T05:00:25;80.43;;;32.08;;
74995;SDS011;63545;51.690;5.202;2023-04-21T05:02:52;69.78;;;29.77;;
74995;SDS011;63545;51.690;5.202;2023-04-21T05:05:18;71.60;;;29.83;;
74995;SDS011;63545;51.690;5.202;2023-04-21T05:07:44;72.95;;;31.35;;
74995;SDS011;63545;51.690;5.202;2023-04-21T05:10:09;76.70;;;31.87;;
74995;SDS011;63545;51.690;5.202;2023-04-21T05:12:35;73.03;;;32.33;;
74995;SDS011;63545;51.690;5.202;2023-04-21T05:15:00;73.37;;;31.03;;
74995;SDS011;63545;51.690;5.202;2023-04-21T05:17:26;71.80;;;31.20;;
74995;SDS011;63545;51.690;5.202;2023-04-21T05:19:52;80.57;;;32.83;;
74995;SDS011;63545;51.690;5.202;2023-04-21T05:22:17;77.67;;;32.87;;
74995;SDS011;63545;51.690;5.202;2023-04-21T05:24:43;72.47;;;31.43;;
74995;SDS011;63545;51.690;5.202;2023-04-21T05:27:08;77.47;;;32.77;;
74995;SDS011;63545;51.690;5.202;2023-04-21T05:29:34;74.53;;;31.88;;
74995;SDS011;63545;51.690;5.202;2023-04-21T05:31:59;73.43;;;30.90;;
74995;SDS011;63545;51.690;5.202;2023-04-21T05:34:25;71.50;;;31.60;;
74995;SDS011;63545;51.690;5.202;2023-04-21T05:36:50;78.57;;;33.07;;
74995;SDS011;63545;51.690;5.202;2023-04-21T05:39:16;78.37;;;33.00;;
74995;SDS011;63545;51.690;5.202;2023-04-21T05:41:42;81.93;;;33.70;;
74995;SDS011;63545;51.690;5.202;2023-04-21T05:44:07;76.90;;;33.37;;
74995;SDS011;63545;51.690;5.202;2023-04-21T05:46:32;78.27;;;33.63;;
74995;SDS011;63545;51.690;5.202;2023-04-21T05:48:58;78.45;;;34.45;;
74995;SDS011;63545;51.690;5.202;2023-04-21T05:51:26;80.47;;;33.93;;
74995;SDS011;63545;51.690;5.202;2023-04-21T05:53:51;83.43;;;34.80;;
74995;SDS011;63545;51.690;5.202;2023-04-21T05:56:17;79.37;;;33.57;;
74995;SDS011;63545;51.690;5.202;2023-04-21T05:58:42;76.70;;;34.53;;
74995;SDS011;63545;51.690;5.202;2023-04-21T06:01:08;78.97;;;34.90;;
74995;SDS011;63545;51.690;5.202;2023-04-21T06:03:33;76.57;;;34.63;;
74995;SDS011;63545;51.690;5.202;2023-04-21T06:05:59;77.00;;;34.67;;
74995;SDS011;63545;51.690;5.202;2023-04-21T06:08:25;80.03;;;34.58;;
74995;SDS011;63545;51.690;5.202;2023-04-21T06:10:51;82.50;;;35.23;;
74995;SDS011;63545;51.690;5.202;2023-04-21T06:13:16;82.43;;;34.63;;
74995;SDS011;63545;51.690;5.202;2023-04-21T06:15:41;80.03;;;34.75;;
74995;SDS011;63545;51.690;5.202;2023-04-21T06:18:07;82.13;;;35.80;;
74995;SDS011;63545;51.690;5.202;2023-04-21T06:20:32;84.33;;;35.17;;
74995;SDS011;63545;51.690;5.202;2023-04-21T06:22:57;74.80;;;34.40;;
74995;SDS011;63545;51.690;5.202;2023-04-21T06:25:23;81.60;;;36.63;;
74995;SDS011;63545;51.690;5.202;2023-04-21T06:27:48;77.33;;;34.27;;
74995;SDS011;63545;51.690;5.202;2023-04-21T06:30:14;84.60;;;36.22;;
74995;SDS011;63545;51.690;5.202;2023-04-21T06:32:39;76.50;;;34.30;;
74995;SDS011;63545;51.690;5.202;2023-04-21T06:35:05;80.57;;;35.30;;
74995;SDS011;63545;51.690;5.202;2023-04-21T06:37:31;77.47;;;35.97;;
74995;SDS011;63545;51.690;5.202;2023-04-21T06:39:56;74.43;;;34.23;;
74995;SDS011;63545;51.690;5.202;2023-04-21T06:42:21;75.47;;;35.37;;
74995;SDS011;63545;51.690;5.202;2023-04-21T06:44:47;78.40;;;35.10;;
74995;SDS011;63545;51.690;5.202;2023-04-21T06:47:12;79.30;;;35.95;;
74995;SDS011;63545;51.690;5.202;2023-04-21T06:49:38;72.73;;;35.33;;
74995;SDS011;63545;51.690;5.202;2023-04-21T06:52:03;73.37;;;34.90;;
74995;SDS011;63545;51.690;5.202;2023-04-21T06:54:29;78.03;;;36.57;;
74995;SDS011;63545;51.690;5.202;2023-04-21T06:56:54;80.47;;;37.42;;
74995;SDS011;63545;51.690;5.202;2023-04-21T06:59:21;78.10;;;35.47;;
74995;SDS011;63545;51.690;5.202;2023-04-21T07:01:47;71.60;;;35.22;;
74995;SDS011;63545;51.690;5.202;2023-04-21T07:04:16;74.68;;;35.88;;
74995;SDS011;63545;51.690;5.202;2023-04-21T07:06:42;74.60;;;34.90;;
74995;SDS011;63545;51.690;5.202;2023-04-21T07:09:07;72.90;;;35.87;;
74995;SDS011;63545;51.690;5.202;2023-04-21T07:11:33;70.67;;;34.63;;
74995;SDS011;63545;51.690;5.202;2023-04-21T07:13:58;69.37;;;33.87;;
74995;SDS011;63545;51.690;5.202;2023-04-21T07:16:26;72.90;;;35.13;;
74995;SDS011;63545;51.690;5.202;2023-04-21T07:18:51;67.47;;;30.58;;
74995;SDS011;63545;51.690;5.202;2023-04-21T07:21:17;69.83;;;34.67;;
74995;SDS011;63545;51.690;5.202;2023-04-21T07:23:42;70.13;;;33.73;;
74995;SDS011;63545;51.690;5.202;2023-04-21T07:26:07;65.27;;;33.43;;
74995;SDS011;63545;51.690;5.202;2023-04-21T07:28:33;63.70;;;31.10;;
74995;SDS011;63545;51.690;5.202;2023-04-21T07:30:58;67.33;;;33.80;;
74995;SDS011;63545;51.690;5.202;2023-04-21T07:33:23;66.80;;;33.83;;
74995;SDS011;63545;51.690;5.202;2023-04-21T07:35:49;59.63;;;31.57;;
74995;SDS011;63545;51.690;5.202;2023-04-21T07:38:14;63.83;;;33.30;;
74995;SDS011;63545;51.690;5.202;2023-04-21T07:40:40;58.47;;;30.97;;
74995;SDS011;63545;51.690;5.202;2023-04-21T07:43:05;58.72;;;31.25;;
74995;SDS011;63545;51.690;5.202;2023-04-21T07:45:30;57.77;;;28.87;;
74995;SDS011;63545;51.690;5.202;2023-04-21T07:47:55;52.77;;;29.63;;
74995;SDS011;63545;51.690;5.202;2023-04-21T07:50:21;54.37;;;30.57;;
74995;SDS011;63545;51.690;5.202;2023-04-21T07:52:46;55.10;;;31.43;;
74995;SDS011;63545;51.690;5.202;2023-04-21T07:55:12;50.83;;;29.43;;
74995;SDS011;63545;51.690;5.202;2023-04-21T07:57:37;51.92;;;29.95;;
74995;SDS011;63545;51.690;5.202;2023-04-21T08:00:04;55.70;;;31.25;;
74995;SDS011;63545;51.690;5.202;2023-04-21T08:02:30;55.30;;;30.93;;
74995;SDS011;63545;51.690;5.202;2023-04-21T08:04:55;52.30;;;30.17;;
74995;SDS011;63545;51.690;5.202;2023-04-21T08:07:20;50.45;;;29.08;;
74995;SDS011;63545;51.690;5.202;2023-04-21T08:09:46;52.77;;;28.70;;
74995;SDS011;63545;51.690;5.202;2023-04-21T08:12:11;52.03;;;28.57;;
74995;SDS011;63545;51.690;5.202;2023-04-21T08:14:37;46.70;;;27.53;;
74995;SDS011;63545;51.690;5.202;2023-04-21T08:17:02;45.90;;;27.87;;
74995;SDS011;63545;51.690;5.202;2023-04-21T08:19:27;53.30;;;29.73;;
74995;SDS011;63545;51.690;5.202;2023-04-21T08:21:53;49.33;;;29.70;;
74995;SDS011;63545;51.690;5.202;2023-04-21T08:24:19;50.23;;;29.97;;
74995;SDS011;63545;51.690;5.202;2023-04-21T08:26:44;55.95;;;29.63;;
74995;SDS011;63545;51.690;5.202;2023-04-21T08:29:10;46.87;;;28.30;;
74995;SDS011;63545;51.690;5.202;2023-04-21T08:31:37;44.55;;;27.10;;
74995;SDS011;63545;51.690;5.202;2023-04-21T08:34:02;42.67;;;25.73;;
74995;SDS011;63545;51.690;5.202;2023-04-21T08:36:28;44.07;;;26.83;;
74995;SDS011;63545;51.690;5.202;2023-04-21T08:38:53;44.80;;;26.37;;
74995;SDS011;63545;51.690;5.202;2023-04-21T08:41:19;39.05;;;24.92;;
74995;SDS011;63545;51.690;5.202;2023-04-21T08:43:44;44.47;;;27.30;;
74995;SDS011;63545;51.690;5.202;2023-04-21T08:46:11;41.07;;;24.07;;
74995;SDS011;63545;51.690;5.202;2023-04-21T08:48:36;37.88;;;24.13;;
74995;SDS011;63545;51.690;5.202;2023-04-21T08:51:02;41.00;;;25.58;;
74995;SDS011;63545;51.690;5.202;2023-04-21T08:53:33;42.45;;;25.45;;
74995;SDS011;63545;51.690;5.202;2023-04-21T08:55:59;38.97;;;23.50;;
74995;SDS011;63545;51.690;5.202;2023-04-21T08:58:25;37.30;;;22.97;;
74995;SDS011;63545;51.690;5.202;2023-04-21T09:00:50;38.47;;;22.52;;
74995;SDS011;63545;51.690;5.202;2023-04-21T09:03:23;37.43;;;23.93;;
74995;SDS011;63545;51.690;5.202;2023-04-21T09:08:23;34.15;;;21.73;;
74995;SDS011;63545;51.690;5.202;2023-04-21T09:10:51;34.70;;;21.70;;
74995;SDS011;63545;51.690;5.202;2023-04-21T09:13:17;34.53;;;21.77;;
74995;SDS011;63545;51.690;5.202;2023-04-21T09:15:44;35.53;;;22.30;;
74995;SDS011;63545;51.690;5.202;2023-04-21T09:20:37;38.93;;;23.33;;
74995;SDS011;63545;51.690;5.202;2023-04-21T09:23:05;33.57;;;21.93;;
74995;SDS011;63545;51.690;5.202;2023-04-21T09:25:31;31.77;;;20.40;;
74995;SDS011;63545;51.690;5.202;2023-04-21T09:28:00;31.42;;;20.08;;
74995;SDS011;63545;51.690;5.202;2023-04-21T09:30:26;29.85;;;20.65;;
74995;SDS011;63545;51.690;5.202;2023-04-21T09:32:54;32.33;;;20.47;;
74995;SDS011;63545;51.690;5.202;2023-04-21T09:35:21;32.05;;;19.67;;
74995;SDS011;63545;51.690;5.202;2023-04-21T09:37:47;27.50;;;18.63;;
74995;SDS011;63545;51.690;5.202;2023-04-21T09:40:13;28.33;;;18.52;;
74995;SDS011;63545;51.690;5.202;2023-04-21T09:42:39;29.63;;;19.85;;
74995;SDS011;63545;51.690;5.202;2023-04-21T09:45:05;30.03;;;20.10;;
74995;SDS011;63545;51.690;5.202;2023-04-21T09:47:34;29.90;;;19.52;;
74995;SDS011;63545;51.690;5.202;2023-04-21T09:50:04;28.60;;;19.58;;
74995;SDS011;63545;51.690;5.202;2023-04-21T09:52:31;30.55;;;20.92;;
74995;SDS011;63545;51.690;5.202;2023-04-21T09:54:59;27.95;;;19.38;;
74995;SDS011;63545;51.690;5.202;2023-04-21T09:57:26;26.90;;;18.03;;
74995;SDS011;63545;51.690;5.202;2023-04-21T09:59:59;29.23;;;19.17;;
74995;SDS011;63545;51.690;5.202;2023-04-21T10:02:28;29.75;;;18.55;;
74995;SDS011;63545;51.690;5.202;2023-04-21T10:04:54;28.02;;;18.35;;
74995;SDS011;63545;51.690;5.202;2023-04-21T10:07:19;25.63;;;17.80;;
74995;SDS011;63545;51.690;5.202;2023-04-21T10:09:46;28.73;;;19.03;;
74995;SDS011;63545;51.690;5.202;2023-04-21T10:12:15;27.73;;;19.58;;
74995;SDS011;63545;51.690;5.202;2023-04-21T10:14:41;30.42;;;18.23;;
74995;SDS011;63545;51.690;5.202;2023-04-21T10:17:07;28.67;;;19.20;;
74995;SDS011;63545;51.690;5.202;2023-04-21T10:19:34;29.42;;;20.75;;
74995;SDS011;63545;51.690;5.202;2023-04-21T10:22:05;29.88;;;20.63;;
74995;SDS011;63545;51.690;5.202;2023-04-21T10:24:35;26.00;;;17.93;;
74995;SDS011;63545;51.690;5.202;2023-04-21T10:27:02;24.35;;;17.40;;
74995;SDS011;63545;51.690;5.202;2023-04-21T10:29:28;23.92;;;17.45;;
74995;SDS011;63545;51.690;5.202;2023-04-21T10:31:57;24.00;;;15.40;;
74995;SDS011;63545;51.690;5.202;2023-04-21T10:34:35;21.42;;;15.38;;
74995;SDS011;63545;51.690;5.202;2023-04-21T10:39:31;23.25;;;15.77;;
74995;SDS011;63545;51.690;5.202;2023-04-21T10:44:40;18.15;;;13.48;;
74995;SDS011;63545;51.690;5.202;2023-04-21T10:47:06;19.38;;;12.15;;
74995;SDS011;63545;51.690;5.202;2023-04-21T10:49:32;15.97;;;12.23;;
74995;SDS011;63545;51.690;5.202;2023-04-21T10:52:02;19.10;;;13.68;;
74995;SDS011;63545;51.690;5.202;2023-04-21T10:57:14;21.92;;;15.73;;
74995;SDS011;63545;51.690;5.202;2023-04-21T10:59:41;21.20;;;16.55;;
74995;SDS011;63545;51.690;5.202;2023-04-21T11:02:07;21.15;;;15.73;;
74995;SDS011;63545;51.690;5.202;2023-04-21T11:04:35;23.10;;;17.33;;
74995;SDS011;63545;51.690;5.202;2023-04-21T11:09:34;23.45;;;18.52;;
74995;SDS011;63545;51.690;5.202;2023-04-21T11:12:01;23.27;;;18.10;;
74995;SDS011;63545;51.690;5.202;2023-04-21T11:14:31;20.65;;;17.05;;
74995;SDS011;63545;51.690;5.202;2023-04-21T11:16:59;17.95;;;14.48;;
74995;SDS011;63545;51.690;5.202;2023-04-21T11:19:25;18.58;;;15.13;;
74995;SDS011;63545;51.690;5.202;2023-04-21T11:21:51;20.43;;;16.20;;
74995;SDS011;63545;51.690;5.202;2023-04-21T11:24:19;22.10;;;16.65;;
74995;SDS011;63545;51.690;5.202;2023-04-21T11:26:45;19.63;;;15.40;;
74995;SDS011;63545;51.690;5.202;2023-04-21T11:29:10;19.63;;;15.20;;
74995;SDS011;63545;51.690;5.202;2023-04-21T11:31:36;18.87;;;15.60;;
74995;SDS011;63545;51.690;5.202;2023-04-21T11:34:04;17.33;;;13.25;;
74995;SDS011;63545;51.690;5.202;2023-04-21T11:36:34;18.13;;;14.23;;
74995;SDS011;63545;51.690;5.202;2023-04-21T11:39:13;16.53;;;13.80;;
74995;SDS011;63545;51.690;5.202;2023-04-21T11:41:41;15.25;;;12.95;;
74995;SDS011;63545;51.690;5.202;2023-04-21T11:44:07;15.65;;;12.75;;
74995;SDS011;63545;51.690;5.202;2023-04-21T11:46:34;17.55;;;14.50;;
74995;SDS011;63545;51.690;5.202;2023-04-21T11:49:05;18.88;;;15.07;;
74995;SDS011;63545;51.690;5.202;2023-04-21T11:51:38;17.30;;;14.70;;
74995;SDS011;63545;51.690;5.202;2023-04-21T11:54:06;17.65;;;15.00;;
74995;SDS011;63545;51.690;5.202;2023-04-21T11:56:36;17.63;;;14.57;;
74995;SDS011;63545;51.690;5.202;2023-04-21T11:59:06;18.40;;;14.48;;
74995;SDS011;63545;51.690;5.202;2023-04-21T12:01:32;19.17;;;15.77;;
74995;SDS011;63545;51.690;5.202;2023-04-21T12:03:57;20.13;;;16.67;;
74995;SDS011;63545;51.690;5.202;2023-04-21T12:06:23;23.57;;;17.40;;
74995;SDS011;63545;51.690;5.202;2023-04-21T12:08:54;20.88;;;17.65;;
74995;SDS011;63545;51.690;5.202;2023-04-21T12:11:21;25.55;;;19.50;;
74995;SDS011;63545;51.690;5.202;2023-04-21T12:13:47;22.57;;;18.30;;
74995;SDS011;63545;51.690;5.202;2023-04-21T12:16:13;21.33;;;17.70;;
74995;SDS011;63545;51.690;5.202;2023-04-21T12:18:39;25.52;;;17.30;;
74995;SDS011;63545;51.690;5.202;2023-04-21T12:21:04;20.40;;;17.13;;
74995;SDS011;63545;51.690;5.202;2023-04-21T12:23:30;17.73;;;15.73;;
74995;SDS011;63545;51.690;5.202;2023-04-21T12:25:56;19.57;;;16.27;;
74995;SDS011;63545;51.690;5.202;2023-04-21T12:28:21;19.13;;;16.77;;
74995;SDS011;63545;51.690;5.202;2023-04-21T12:30:46;20.30;;;15.83;;
74995;SDS011;63545;51.690;5.202;2023-04-21T12:33:12;19.40;;;16.70;;
74995;SDS011;63545;51.690;5.202;2023-04-21T12:35:37;19.23;;;16.20;;
74995;SDS011;63545;51.690;5.202;2023-04-21T12:38:03;21.33;;;17.70;;
74995;SDS011;63545;51.690;5.202;2023-04-21T12:40:28;21.23;;;18.23;;
74995;SDS011;63545;51.690;5.202;2023-04-21T12:42:54;21.97;;;18.53;;
74995;SDS011;63545;51.690;5.202;2023-04-21T12:45:19;22.07;;;18.80;;
74995;SDS011;63545;51.690;5.202;2023-04-21T12:47:44;24.92;;;20.83;;
74995;SDS011;63545;51.690;5.202;2023-04-21T12:50:10;25.43;;;21.33;;
74995;SDS011;63545;51.690;5.202;2023-04-21T12:52:36;24.15;;;20.15;;
74995;SDS011;63545;51.690;5.202;2023-04-21T12:55:01;23.00;;;19.60;;
74995;SDS011;63545;51.690;5.202;2023-04-21T12:57:27;23.30;;;19.93;;
74995;SDS011;63545;51.690;5.202;2023-04-21T12:59:52;24.92;;;21.63;;
74995;SDS011;63545;51.690;5.202;2023-04-21T13:02:18;24.70;;;20.40;;
74995;SDS011;63545;51.690;5.202;2023-04-21T13:04:43;25.70;;;21.67;;
74995;SDS011;63545;51.690;5.202;2023-04-21T13:07:09;25.93;;;21.20;;
74995;SDS011;63545;51.690;5.202;2023-04-21T13:09:34;25.58;;;21.58;;
74995;SDS011;63545;51.690;5.202;2023-04-21T13:12:00;23.83;;;21.00;;
74995;SDS011;63545;51.690;5.202;2023-04-21T13:14:25;25.25;;;20.70;;
74995;SDS011;63545;51.690;5.202;2023-04-21T13:16:51;22.87;;;20.20;;
74995;SDS011;63545;51.690;5.202;2023-04-21T13:19:17;22.58;;;19.55;;
74995;SDS011;63545;51.690;5.202;2023-04-21T13:21:42;23.70;;;20.57;;
74995;SDS011;63545;51.690;5.202;2023-04-21T13:24:08;22.47;;;19.27;;
74995;SDS011;63545;51.690;5.202;2023-04-21T13:26:33;23.83;;;20.10;;
74995;SDS011;63545;51.690;5.202;2023-04-21T13:28:59;23.02;;;19.83;;
74995;SDS011;63545;51.690;5.202;2023-04-21T13:31:25;22.40;;;18.33;;
74995;SDS011;63545;51.690;5.202;2023-04-21T13:33:50;24.27;;;19.67;;
74995;SDS011;63545;51.690;5.202;2023-04-21T13:36:16;23.67;;;20.00;;
74995;SDS011;63545;51.690;5.202;2023-04-21T13:38:41;22.07;;;19.40;;
74995;SDS011;63545;51.690;5.202;2023-04-21T13:41:07;23.87;;;19.37;;
74995;SDS011;63545;51.690;5.202;2023-04-21T13:43:32;24.17;;;19.98;;
74995;SDS011;63545;51.690;5.202;2023-04-21T13:45:58;24.57;;;20.47;;
74995;SDS011;63545;51.690;5.202;2023-04-21T13:48:23;25.17;;;20.23;;
74995;SDS011;63545;51.690;5.202;2023-04-21T13:50:50;25.30;;;20.63;;
74995;SDS011;63545;51.690;5.202;2023-04-21T13:53:16;22.85;;;19.05;;
74995;SDS011;63545;51.690;5.202;2023-04-21T13:55:41;24.93;;;20.43;;
74995;SDS011;63545;51.690;5.202;2023-04-21T13:58:08;23.38;;;19.25;;
74995;SDS011;63545;51.690;5.202;2023-04-21T14:00:33;22.63;;;19.03;;
74995;SDS011;63545;51.690;5.202;2023-04-21T14:02:58;22.33;;;17.45;;
74995;SDS011;63545;51.690;5.202;2023-04-21T14:05:24;23.10;;;19.77;;
74995;SDS011;63545;51.690;5.202;2023-04-21T14:07:49;23.90;;;19.50;;
74995;SDS011;63545;51.690;5.202;2023-04-21T14:10:15;25.27;;;20.43;;
74995;SDS011;63545;51.690;5.202;2023-04-21T14:12:40;25.23;;;20.53;;
74995;SDS011;63545;51.690;5.202;2023-04-21T14:15:06;27.40;;;21.33;;
74995;SDS011;63545;51.690;5.202;2023-04-21T14:17:31;25.53;;;20.93;;
74995;SDS011;63545;51.690;5.202;2023-04-21T14:19:57;28.93;;;22.03;;
74995;SDS011;63545;51.690;5.202;2023-04-21T14:22:22;26.52;;;22.00;;
74995;SDS011;63545;51.690;5.202;2023-04-21T14:24:48;31.30;;;23.33;;
74995;SDS011;63545;51.690;5.202;2023-04-21T14:27:13;29.63;;;23.90;;
74995;SDS011;63545;51.690;5.202;2023-04-21T14:29:39;29.07;;;23.03;;